Aviation Digital Data Service (ADDS)

Output produced by METARs form (0819 UTC 20 April 2018)
found at http://aviationweather.gov/adds/metars/
 
KPOU 200520Z 2006/2106 30008KT P6SM SCT080 
     FM201300 31012G22KT P6SM SCT060 
     FM210000 31008KT P6SM FEW080